createdAt,value
2022-10-19T00:02:08.464Z,37.17
2022-10-19T00:04:34.999Z,33.17
2022-10-19T00:07:01.407Z,33.60
2022-10-19T00:09:29.147Z,34.43
2022-10-19T00:11:56.337Z,38.83
2022-10-19T00:14:24.273Z,41.57
2022-10-19T00:16:53.010Z,36.27
2022-10-19T00:19:23.444Z,33.60
2022-10-19T00:24:22.278Z,35.63
2022-10-19T00:26:48.711Z,35.47
2022-10-19T00:29:15.648Z,31.83
2022-10-19T00:31:42.355Z,36.90
2022-10-19T00:34:09.097Z,36.43
2022-10-19T00:36:40.032Z,34.77
2022-10-19T00:39:10.403Z,33.67
2022-10-19T00:41:37.116Z,33.63
2022-10-19T00:44:07.142Z,37.70
2022-10-19T00:46:37.031Z,29.60
2022-10-19T00:49:27.326Z,30.97
2022-10-19T00:51:56.865Z,37.20
2022-10-19T00:54:24.066Z,40.77
2022-10-19T00:56:52.211Z,37.03
2022-10-19T00:59:20.960Z,37.13
2022-10-19T01:01:48.207Z,44.07
2022-10-19T01:04:15.071Z,50.63
2022-10-19T01:06:42.060Z,47.00
2022-10-19T01:09:09.268Z,54.43
2022-10-19T01:11:59.104Z,50.30
2022-10-19T01:14:28.013Z,44.17
2022-10-19T01:17:06.552Z,49.60
2022-10-19T01:20:05.487Z,55.70
2022-10-19T01:23:09.053Z,52.27
2022-10-19T01:25:56.969Z,58.83
2022-10-19T01:28:32.587Z,55.43
2022-10-19T01:31:03.921Z,53.53
2022-10-19T01:33:33.542Z,51.53
2022-10-19T01:36:09.227Z,48.67
2022-10-19T01:38:44.840Z,50.77
2022-10-19T01:41:16.617Z,56.00
2022-10-19T01:44:08.023Z,56.03
2022-10-19T01:46:39.528Z,49.13
2022-10-19T01:49:13.419Z,49.40
2022-10-19T01:51:43.960Z,50.67
2022-10-19T01:54:12.728Z,48.97
2022-10-19T01:56:42.380Z,44.53
2022-10-19T01:59:10.608Z,52.47
2022-10-19T02:01:39.787Z,50.13
2022-10-19T02:04:06.714Z,47.43
2022-10-19T02:06:33.240Z,45.43
2022-10-19T02:09:00.085Z,53.90
2022-10-19T02:11:26.612Z,42.57
2022-10-19T02:13:58.551Z,48.20
2022-10-19T02:16:38.627Z,49.23
2022-10-19T02:19:08.592Z,52.47
2022-10-19T02:21:35.228Z,47.73
2022-10-19T02:24:01.646Z,44.37
2022-10-19T02:26:28.260Z,51.03
2022-10-19T02:28:56.179Z,46.43
2022-10-19T02:31:23.036Z,51.67
2022-10-19T02:33:49.530Z,46.27
2022-10-19T02:36:16.128Z,51.17
2022-10-19T02:38:42.651Z,49.87
2022-10-19T02:41:15.752Z,41.10
2022-10-19T02:43:43.072Z,41.83
2022-10-19T02:46:36.810Z,40.00
2022-10-19T02:49:04.510Z,51.90
2022-10-19T02:51:36.790Z,43.50
2022-10-19T02:54:05.457Z,45.40
2022-10-19T02:56:33.378Z,49.03
2022-10-19T02:59:00.112Z,37.47
2022-10-19T03:01:26.847Z,41.30
2022-10-19T03:03:53.305Z,45.53
2022-10-19T03:06:20.020Z,41.50
2022-10-19T03:08:46.773Z,41.53
2022-10-19T03:11:13.228Z,40.30
2022-10-19T03:13:41.339Z,44.50
2022-10-19T03:16:09.703Z,41.33
2022-10-19T03:18:36.281Z,46.00
2022-10-19T03:21:08.421Z,42.60
2022-10-19T03:23:35.209Z,48.57
2022-10-19T03:26:01.712Z,49.40
2022-10-19T03:28:28.668Z,47.13
2022-10-19T03:30:55.224Z,53.07
2022-10-19T03:33:22.500Z,49.73
2022-10-19T03:35:49.114Z,52.23
2022-10-19T03:38:16.190Z,48.63
2022-10-19T03:40:42.796Z,54.13
2022-10-19T03:43:09.326Z,49.60
2022-10-19T03:45:35.980Z,58.60
2022-10-19T03:48:02.438Z,50.07
2022-10-19T03:50:28.901Z,44.57
2022-10-19T03:52:55.585Z,38.57
2022-10-19T03:55:22.455Z,48.77
2022-10-19T03:57:48.960Z,50.17
2022-10-19T04:00:15.804Z,36.33
2022-10-19T04:02:42.344Z,41.20
2022-10-19T04:05:09.101Z,42.80
2022-10-19T04:07:35.874Z,43.80
2022-10-19T04:10:02.465Z,44.50
2022-10-19T04:12:29.097Z,38.10
2022-10-19T04:14:57.778Z,42.40
2022-10-19T04:17:25.488Z,46.90
2022-10-19T04:19:51.992Z,33.97
2022-10-19T04:22:18.476Z,39.57
2022-10-19T04:24:44.965Z,33.70
2022-10-19T04:27:11.592Z,36.57
2022-10-19T04:29:38.064Z,34.83
2022-10-19T04:32:04.664Z,38.27
2022-10-19T04:34:35.158Z,35.83
2022-10-19T04:37:04.157Z,30.70
2022-10-19T04:39:32.769Z,32.67
2022-10-19T04:41:59.327Z,29.73
2022-10-19T04:44:25.808Z,32.33
2022-10-19T04:46:52.378Z,29.27
2022-10-19T04:49:20.334Z,32.07
2022-10-19T04:51:46.970Z,28.63
2022-10-19T04:54:13.552Z,27.27
2022-10-19T04:56:40.111Z,29.13
2022-10-19T04:59:06.631Z,34.07
2022-10-19T05:01:33.271Z,31.17
2022-10-19T05:04:01.481Z,31.73
2022-10-19T05:06:28.296Z,26.40
2022-10-19T05:08:54.885Z,27.47
2022-10-19T05:11:21.630Z,29.07
2022-10-19T05:13:48.553Z,27.83
2022-10-19T05:16:18.072Z,31.17
2022-10-19T05:18:51.399Z,27.70
2022-10-19T05:21:18.892Z,29.53
2022-10-19T05:23:45.424Z,25.17
2022-10-19T05:26:17.638Z,25.03
2022-10-19T05:28:52.000Z,24.27
2022-10-19T05:31:20.700Z,29.37
2022-10-19T05:33:47.277Z,21.33
2022-10-19T05:36:14.805Z,21.53
2022-10-19T05:38:42.311Z,20.57
2022-10-19T05:41:08.880Z,30.27
2022-10-19T05:43:35.431Z,21.43
2022-10-19T05:46:10.548Z,18.73
2022-10-19T05:48:37.640Z,26.23
2022-10-19T05:51:05.684Z,16.50
2022-10-19T05:53:33.385Z,21.47
2022-10-19T05:56:00.136Z,19.83
2022-10-19T05:58:26.860Z,13.63
2022-10-19T06:00:54.262Z,12.00
2022-10-19T06:03:22.314Z,13.63
2022-10-19T06:05:49.572Z,22.80
2022-10-19T06:08:17.473Z,16.20
2022-10-19T06:10:44.855Z,12.80
2022-10-19T06:13:12.239Z,13.40
2022-10-19T06:15:40.428Z,18.67
2022-10-19T06:18:07.647Z,19.57
2022-10-19T06:20:35.479Z,21.50
2022-10-19T06:23:02.684Z,20.27
2022-10-19T06:25:33.686Z,16.80
2022-10-19T06:28:00.715Z,14.50
2022-10-19T06:30:27.809Z,20.13
2022-10-19T06:32:54.677Z,16.70
2022-10-19T06:35:21.521Z,21.30
2022-10-19T06:37:47.983Z,18.37
2022-10-19T06:40:14.574Z,15.83
2022-10-19T06:42:41.088Z,17.50
2022-10-19T06:45:10.797Z,20.30
2022-10-19T06:47:37.780Z,16.20
2022-10-19T06:50:06.559Z,19.93
2022-10-19T06:52:34.408Z,16.07
2022-10-19T06:55:01.593Z,19.33
2022-10-19T06:57:28.737Z,17.97
2022-10-19T06:59:55.604Z,17.20
2022-10-19T07:02:22.524Z,19.87
2022-10-19T07:04:48.973Z,13.93
2022-10-19T07:07:15.607Z,20.27
2022-10-19T07:09:42.034Z,20.37
2022-10-19T07:12:10.774Z,14.97
2022-10-19T07:14:39.665Z,9.83
2022-10-19T07:17:06.975Z,18.30
2022-10-19T07:19:34.095Z,9.67
2022-10-19T07:22:00.653Z,12.03
2022-10-19T07:24:27.145Z,9.67
2022-10-19T07:26:53.805Z,12.73
2022-10-19T07:29:20.838Z,9.63
2022-10-19T07:31:47.661Z,10.10
2022-10-19T07:34:14.926Z,7.70
2022-10-19T07:36:45.364Z,7.20
2022-10-19T07:39:13.232Z,11.53
2022-10-19T07:41:40.211Z,11.20
2022-10-19T07:44:08.209Z,13.57
2022-10-19T07:46:39.237Z,7.87
2022-10-19T07:49:09.869Z,12.07
2022-10-19T07:51:40.037Z,9.17
2022-10-19T07:54:06.744Z,10.07
2022-10-19T07:56:33.363Z,15.10
2022-10-19T07:59:00.477Z,11.77
2022-10-19T08:01:34.890Z,15.23
2022-10-19T08:06:48.236Z,9.20
2022-10-19T08:09:33.423Z,14.10
2022-10-19T08:12:01.948Z,12.60
2022-10-19T08:14:28.464Z,6.40
2022-10-19T08:16:54.905Z,8.43
2022-10-19T08:19:22.664Z,17.33
2022-10-19T08:21:49.172Z,8.73
2022-10-19T08:24:17.805Z,13.63
2022-10-19T08:26:44.671Z,10.40
2022-10-19T08:29:16.556Z,8.27
2022-10-19T08:31:44.170Z,12.67
2022-10-19T08:34:11.586Z,12.40
2022-10-19T08:36:38.183Z,14.00
2022-10-19T08:39:06.790Z,17.70
2022-10-19T08:41:38.218Z,15.47
2022-10-19T08:44:25.871Z,14.73
2022-10-19T08:47:02.399Z,11.90
2022-10-19T08:49:31.518Z,11.10
2022-10-19T08:52:00.793Z,14.77
2022-10-19T08:54:44.139Z,13.07
2022-10-19T08:57:25.152Z,9.33
2022-10-19T09:00:06.885Z,15.03
2022-10-19T09:02:45.360Z,9.27
2022-10-19T09:05:45.443Z,10.07
2022-10-19T09:08:16.801Z,11.33
2022-10-19T09:10:47.136Z,13.23
2022-10-19T09:13:21.250Z,16.00
2022-10-19T09:15:49.442Z,10.90
2022-10-19T09:18:22.783Z,10.70
2022-10-19T09:20:51.124Z,10.27
2022-10-19T09:23:17.475Z,9.40
2022-10-19T09:25:43.959Z,11.87
2022-10-19T09:28:38.779Z,7.30
2022-10-19T09:31:07.775Z,7.20
2022-10-19T09:33:36.534Z,9.43
2022-10-19T09:36:05.327Z,11.60
2022-10-19T09:38:32.986Z,9.13
2022-10-19T09:41:12.901Z,9.57
2022-10-19T09:43:39.610Z,8.30
2022-10-19T09:46:19.768Z,8.20
2022-10-19T09:48:51.372Z,15.57
2022-10-19T09:51:18.846Z,12.20
2022-10-19T09:53:51.673Z,10.40
2022-10-19T09:56:24.153Z,5.97
2022-10-19T09:58:52.870Z,5.20
2022-10-19T10:01:43.217Z,7.67
2022-10-19T10:04:17.981Z,8.20
2022-10-19T10:06:47.286Z,3.27
2022-10-19T10:09:18.634Z,3.70
2022-10-19T10:11:48.119Z,1.47
2022-10-19T10:14:20.813Z,1.17
2022-10-19T10:16:47.656Z,4.10
2022-10-19T10:19:16.372Z,4.97
2022-10-19T10:21:51.124Z,0.93
2022-10-19T10:24:20.177Z,1.03
2022-10-19T10:26:52.629Z,1.20
2022-10-19T10:29:33.227Z,2.17
2022-10-19T10:32:05.368Z,2.40
2022-10-19T10:34:59.981Z,1.30
2022-10-19T10:37:38.391Z,2.80
2022-10-19T10:40:05.981Z,2.67
2022-10-19T10:42:37.188Z,3.57
2022-10-19T10:45:04.634Z,1.20
2022-10-19T10:47:32.541Z,2.33
2022-10-19T10:50:03.377Z,1.60
2022-10-19T10:52:34.202Z,1.33
2022-10-19T10:55:17.497Z,1.23
2022-10-19T10:57:48.319Z,3.83
2022-10-19T11:00:20.247Z,2.30
2022-10-19T11:02:52.445Z,2.47
2022-10-19T11:05:26.863Z,4.27
2022-10-19T11:07:58.996Z,4.30
2022-10-19T11:10:35.782Z,2.70
2022-10-19T11:13:28.233Z,1.30
2022-10-19T11:16:03.023Z,3.03
2022-10-19T11:18:34.938Z,8.13
2022-10-19T11:21:06.896Z,2.07
2022-10-19T11:23:55.569Z,5.40
2022-10-19T11:26:32.866Z,3.50
2022-10-19T11:29:50.662Z,5.53
2022-10-19T11:32:46.053Z,6.00
2022-10-19T11:35:36.579Z,1.13
2022-10-19T11:38:22.067Z,4.10
2022-10-19T11:43:45.712Z,1.77
2022-10-19T11:46:26.546Z,3.77
2022-10-19T11:49:20.363Z,4.10
2022-10-19T11:51:57.475Z,3.03
2022-10-19T11:54:58.288Z,2.73
2022-10-19T11:57:36.966Z,8.27
2022-10-19T12:00:15.314Z,2.57
2022-10-19T12:06:18.079Z,7.07
2022-10-19T12:09:10.668Z,3.67
2022-10-19T12:11:43.213Z,2.87
2022-10-19T12:14:13.941Z,1.53
2022-10-19T12:16:43.939Z,3.77
2022-10-19T12:19:19.965Z,1.63
2022-10-19T12:21:46.773Z,2.73
2022-10-19T12:24:19.785Z,2.70
2022-10-19T12:26:47.183Z,3.83
2022-10-19T12:29:21.255Z,1.67
2022-10-19T12:31:51.052Z,1.63
2022-10-19T12:34:33.397Z,7.00
2022-10-19T12:37:07.399Z,2.10
2022-10-19T12:39:39.801Z,2.63
2022-10-19T12:42:29.783Z,2.53
2022-10-19T12:45:18.523Z,4.10
2022-10-19T12:48:08.593Z,1.53
2022-10-19T12:50:56.865Z,3.33
2022-10-19T12:53:31.452Z,3.13
2022-10-19T12:56:23.023Z,1.70
2022-10-19T12:59:01.704Z,3.67
2022-10-19T13:01:34.110Z,1.27
2022-10-19T13:04:20.671Z,3.37
2022-10-19T13:06:51.957Z,2.97
2022-10-19T13:09:39.623Z,2.47
2022-10-19T13:12:19.455Z,2.33
2022-10-19T13:14:52.803Z,2.80
2022-10-19T13:17:35.034Z,2.93
2022-10-19T13:20:13.727Z,0.83
2022-10-19T13:22:44.969Z,2.43
2022-10-19T13:25:17.490Z,2.43
2022-10-19T13:27:45.237Z,3.67
2022-10-19T13:30:36.948Z,1.20
2022-10-19T13:33:25.434Z,6.40
2022-10-19T13:36:10.694Z,2.90
2022-10-19T13:38:45.078Z,1.83
2022-10-19T13:41:19.618Z,3.97
2022-10-19T13:44:14.998Z,3.33
2022-10-19T13:46:53.779Z,2.97
2022-10-19T13:49:33.027Z,5.57
2022-10-19T13:52:32.861Z,2.63
2022-10-19T13:55:46.445Z,2.70
2022-10-19T13:58:48.049Z,1.20
2022-10-19T14:01:23.371Z,1.57
2022-10-19T14:04:10.850Z,1.40
2022-10-19T14:07:05.607Z,2.37
2022-10-19T14:09:44.635Z,1.00
2022-10-19T14:12:25.498Z,4.63
2022-10-19T14:14:53.750Z,5.47
2022-10-19T14:17:24.603Z,5.43
2022-10-19T14:19:57.129Z,1.17
2022-10-19T14:22:26.578Z,3.17
2022-10-19T14:25:01.158Z,1.67
2022-10-19T14:27:27.672Z,1.87
2022-10-19T14:29:54.599Z,2.20
2022-10-19T14:32:27.130Z,1.77
2022-10-19T14:34:54.752Z,3.30
2022-10-19T14:37:23.646Z,3.97
2022-10-19T14:40:27.571Z,1.43
2022-10-19T14:42:55.226Z,1.20
2022-10-19T14:45:24.199Z,2.13
2022-10-19T14:47:56.032Z,2.67
2022-10-19T14:50:46.149Z,1.83
2022-10-19T14:53:20.812Z,2.30
2022-10-19T14:55:48.449Z,2.37
2022-10-19T14:58:19.315Z,1.60
2022-10-19T15:00:47.411Z,2.90
2022-10-19T15:03:21.932Z,7.63
2022-10-19T15:05:49.739Z,2.00
2022-10-19T15:08:48.557Z,1.80
2022-10-19T15:11:41.209Z,3.77
2022-10-19T15:14:15.762Z,5.23
2022-10-19T15:16:51.500Z,7.00
2022-10-19T15:19:33.358Z,5.37
2022-10-19T15:22:19.850Z,2.67
2022-10-19T15:25:21.905Z,2.20
2022-10-19T15:27:51.030Z,3.37
2022-10-19T15:30:17.473Z,1.73
2022-10-19T15:32:46.189Z,3.73
2022-10-19T15:35:20.406Z,3.00
2022-10-19T15:37:48.954Z,1.77
2022-10-19T15:40:36.662Z,1.97
2022-10-19T15:43:31.562Z,3.63
2022-10-19T15:46:03.449Z,5.47
2022-10-19T15:48:50.012Z,1.83
2022-10-19T15:51:33.936Z,2.67
2022-10-19T15:54:02.539Z,7.87
2022-10-19T15:56:32.395Z,5.93
2022-10-19T15:59:01.042Z,3.43
2022-10-19T16:01:29.807Z,7.43
2022-10-19T16:03:57.013Z,2.50
2022-10-19T16:06:25.901Z,3.07
2022-10-19T16:08:54.057Z,7.10
2022-10-19T16:11:21.858Z,2.67
2022-10-19T16:13:48.800Z,3.20
2022-10-19T16:16:26.997Z,2.23
2022-10-19T16:18:54.503Z,2.80
2022-10-19T16:21:24.843Z,3.67
2022-10-19T16:23:51.742Z,6.20
2022-10-19T16:26:19.198Z,3.47
2022-10-19T16:28:45.947Z,3.70
2022-10-19T16:31:12.576Z,2.90
2022-10-19T16:33:39.116Z,2.73
2022-10-19T16:36:07.068Z,3.90
2022-10-19T16:38:34.247Z,6.20
2022-10-19T16:41:06.017Z,6.17
2022-10-19T16:43:33.212Z,3.27
2022-10-19T16:46:00.820Z,4.37
2022-10-19T16:48:27.641Z,7.30
2022-10-19T16:51:06.762Z,5.60
2022-10-19T16:53:34.615Z,5.13
2022-10-19T16:56:05.626Z,3.27
2022-10-19T16:58:32.911Z,3.43
2022-10-19T17:01:02.256Z,2.67
2022-10-19T17:03:28.813Z,8.43
2022-10-19T17:05:55.469Z,3.90
2022-10-19T17:08:36.421Z,5.93
2022-10-19T17:11:10.811Z,6.80
2022-10-19T17:13:37.418Z,8.33
2022-10-19T17:16:05.756Z,8.57
2022-10-19T17:18:33.167Z,3.40
2022-10-19T17:21:07.643Z,6.00
2022-10-19T17:23:34.327Z,3.30
2022-10-19T17:26:01.213Z,4.33
2022-10-19T17:28:27.969Z,3.37
2022-10-19T17:30:54.631Z,4.30
2022-10-19T17:33:22.053Z,6.03
2022-10-19T17:35:48.512Z,3.27
2022-10-19T17:38:15.222Z,7.30
2022-10-19T17:40:41.643Z,4.97
2022-10-19T17:43:08.223Z,4.40
2022-10-19T17:45:34.913Z,8.27
2022-10-19T17:48:01.469Z,3.93
2022-10-19T17:50:27.906Z,6.53
2022-10-19T17:52:54.644Z,4.27
2022-10-19T17:57:48.891Z,4.53
2022-10-19T18:00:15.473Z,8.50
2022-10-19T18:02:44.362Z,8.10
2022-10-19T18:05:10.923Z,5.47
2022-10-19T18:07:37.756Z,6.07
2022-10-19T18:10:04.743Z,6.97
2022-10-19T18:12:32.162Z,6.50
2022-10-19T18:14:58.698Z,10.10
2022-10-19T18:17:27.654Z,8.77
2022-10-19T18:19:54.417Z,11.20
2022-10-19T18:22:21.883Z,13.90
2022-10-19T18:24:49.478Z,8.07
2022-10-19T18:27:15.982Z,7.87
2022-10-19T18:29:42.531Z,5.63
2022-10-19T18:32:09.101Z,4.50
2022-10-19T18:34:35.567Z,7.67
2022-10-19T18:37:02.169Z,9.93
2022-10-19T18:39:28.714Z,9.13
2022-10-19T18:41:55.313Z,6.10
2022-10-19T18:44:26.291Z,7.73
2022-10-19T18:46:53.836Z,9.40
2022-10-19T18:49:20.363Z,5.10
2022-10-19T18:51:50.745Z,11.47
2022-10-19T18:54:21.035Z,10.63
2022-10-19T18:56:47.673Z,8.97
2022-10-19T18:59:14.589Z,5.93
2022-10-19T19:01:41.130Z,7.57
2022-10-19T19:04:09.310Z,6.80
2022-10-19T19:06:36.945Z,10.27
2022-10-19T19:09:06.749Z,8.70
2022-10-19T19:11:36.901Z,8.40
2022-10-19T19:14:07.529Z,8.10
2022-10-19T19:16:37.025Z,6.93
2022-10-19T19:19:04.147Z,5.97
2022-10-19T19:21:31.569Z,9.60
2022-10-19T19:24:00.082Z,6.70
2022-10-19T19:26:28.789Z,6.40
2022-10-19T19:28:55.362Z,10.97
2022-10-19T19:31:21.951Z,9.27
2022-10-19T19:33:48.574Z,6.60
2022-10-19T19:36:16.936Z,9.57
2022-10-19T19:38:44.457Z,8.03
2022-10-19T19:41:13.000Z,7.30
2022-10-19T19:43:39.893Z,7.03
2022-10-19T19:46:09.602Z,9.77
2022-10-19T19:48:37.019Z,6.67
2022-10-19T19:51:03.617Z,8.00
2022-10-19T19:53:31.065Z,7.87
2022-10-19T19:55:57.679Z,8.27
2022-10-19T19:58:24.105Z,6.90
2022-10-19T20:00:50.517Z,8.13
2022-10-19T20:03:16.993Z,10.73
2022-10-19T20:05:43.483Z,9.80
2022-10-19T20:08:10.115Z,11.17
2022-10-19T20:10:40.348Z,9.73
2022-10-19T20:13:07.321Z,11.43
2022-10-19T20:15:37.311Z,9.33
2022-10-19T20:18:03.778Z,10.73
2022-10-19T20:20:30.546Z,6.83
2022-10-19T20:22:57.522Z,7.93
2022-10-19T20:25:24.126Z,8.27
2022-10-19T20:27:50.636Z,10.77
2022-10-19T20:30:19.018Z,9.90
2022-10-19T20:32:45.529Z,8.80
2022-10-19T20:35:11.972Z,9.93
2022-10-19T20:37:38.445Z,10.13
2022-10-19T20:40:08.515Z,6.77
2022-10-19T20:42:35.728Z,11.20
2022-10-19T20:45:02.515Z,9.50
2022-10-19T20:47:29.460Z,10.23
2022-10-19T20:49:55.947Z,11.10
2022-10-19T20:52:22.748Z,9.27
2022-10-19T20:54:49.329Z,8.03
2022-10-19T20:57:15.771Z,8.93
2022-10-19T20:59:43.803Z,7.57
2022-10-19T21:02:10.942Z,6.60
2022-10-19T21:04:37.692Z,10.23
2022-10-19T21:07:05.076Z,7.17
2022-10-19T21:09:32.208Z,9.73
2022-10-19T21:11:59.121Z,13.00
2022-10-19T21:14:28.875Z,12.53
2022-10-19T21:16:57.164Z,12.47
2022-10-19T21:19:25.541Z,10.23
2022-10-19T21:21:57.791Z,11.40
2022-10-19T21:24:26.955Z,11.03
2022-10-19T21:26:53.598Z,9.73
2022-10-19T21:29:20.168Z,14.23
2022-10-19T21:31:50.086Z,12.40
2022-10-19T21:34:19.251Z,11.60
2022-10-19T21:36:45.752Z,12.20
2022-10-19T21:39:12.223Z,13.47
2022-10-19T21:41:38.730Z,11.97
2022-10-19T21:44:05.326Z,11.27
2022-10-19T21:46:32.266Z,14.60
2022-10-19T21:48:58.738Z,10.27
2022-10-19T21:51:42.438Z,12.73
2022-10-19T21:56:43.610Z,10.30
2022-10-19T21:59:10.475Z,10.13
2022-10-19T22:01:40.154Z,9.57
2022-10-19T22:04:11.107Z,12.57
2022-10-19T22:06:37.722Z,10.07
2022-10-19T22:09:05.665Z,11.17
2022-10-19T22:11:32.365Z,12.87
2022-10-19T22:14:00.794Z,14.87
2022-10-19T22:16:28.810Z,12.13
2022-10-19T22:18:55.829Z,13.37
2022-10-19T22:21:28.701Z,14.87
2022-10-19T22:24:06.969Z,12.90
2022-10-19T22:26:36.312Z,12.80
2022-10-19T22:29:04.400Z,13.73
2022-10-19T22:31:32.649Z,14.67
2022-10-19T22:34:04.909Z,12.30
2022-10-19T22:36:32.260Z,12.43
2022-10-19T22:38:58.667Z,12.93
2022-10-19T22:41:25.213Z,17.70
2022-10-19T22:43:51.693Z,28.67
2022-10-19T22:46:18.195Z,21.80
2022-10-19T22:48:45.048Z,20.00
2022-10-19T22:51:11.495Z,18.63
2022-10-19T22:53:38.039Z,20.60
2022-10-19T22:56:05.152Z,23.17
2022-10-19T22:58:32.321Z,19.20
2022-10-19T23:01:03.782Z,24.43
2022-10-19T23:03:30.862Z,19.87
2022-10-19T23:05:57.503Z,23.07
2022-10-19T23:08:23.948Z,23.90
2022-10-19T23:10:50.384Z,19.60
2022-10-19T23:13:17.177Z,16.80
2022-10-19T23:15:44.752Z,22.47
2022-10-19T23:18:12.001Z,18.73
2022-10-19T23:20:38.487Z,23.83
2022-10-19T23:23:05.589Z,20.13
2022-10-19T23:28:03.795Z,15.67
2022-10-19T23:30:31.034Z,15.43
2022-10-19T23:32:57.594Z,18.93
2022-10-19T23:35:24.115Z,21.93
2022-10-19T23:37:50.641Z,17.57
2022-10-19T23:40:17.334Z,19.17
2022-10-19T23:42:43.826Z,19.17
2022-10-19T23:45:10.564Z,16.47
2022-10-19T23:47:37.390Z,18.80
2022-10-19T23:50:04.200Z,16.63
2022-10-19T23:52:31.082Z,18.03
2022-10-19T23:54:57.510Z,21.00
2022-10-19T23:57:23.953Z,19.83
2022-10-19T23:59:50.346Z,17.73
